createdAt,value
2022-08-08T00:01:08.606Z,24.09
2022-08-08T00:04:05.576Z,23.79
2022-08-08T00:06:46.700Z,23.83
2022-08-08T00:09:52.378Z,23.92
2022-08-08T00:12:26.135Z,23.86
2022-08-08T00:15:06.818Z,23.84
2022-08-08T00:17:58.479Z,23.95
2022-08-08T00:20:41.922Z,23.86
2022-08-08T00:23:18.488Z,23.89
2022-08-08T00:25:52.859Z,23.87
2022-08-08T00:28:34.179Z,23.50
2022-08-08T00:32:21.178Z,23.82
2022-08-08T00:34:27.408Z,23.61
2022-08-08T00:37:03.516Z,23.74
2022-08-08T00:41:12.843Z,23.60
2022-08-08T00:43:19.712Z,23.36
2022-08-08T00:46:17.258Z,23.57
2022-08-08T00:49:22.377Z,23.70
2022-08-08T00:51:53.319Z,23.84
2022-08-08T00:54:43.575Z,23.92
2022-08-08T00:57:35.925Z,23.95
2022-08-08T01:00:14.448Z,24.00
2022-08-08T01:03:58.499Z,24.08
2022-08-08T01:06:11.873Z,24.05
2022-08-08T01:09:36.117Z,24.15
2022-08-08T01:12:11.391Z,23.96
2022-08-08T01:15:17.264Z,23.75
2022-08-08T01:18:50.486Z,23.45
2022-08-08T01:21:11.064Z,23.50
2022-08-08T01:24:13.425Z,23.86
2022-08-08T01:26:53.390Z,24.05
2022-08-08T01:29:35.158Z,24.08
2022-08-08T01:32:31.783Z,24.03
2022-08-08T01:35:38.358Z,23.92
2022-08-08T01:38:29.668Z,24.00
2022-08-08T01:41:15.878Z,23.93
2022-08-08T01:44:03.608Z,23.95
2022-08-08T01:46:47.716Z,23.98
2022-08-08T01:49:45.203Z,24.10
2022-08-08T01:52:33.437Z,24.42
2022-08-08T01:56:28.354Z,24.09
2022-08-08T01:58:38.678Z,24.03
2022-08-08T02:02:00.017Z,24.18
2022-08-08T02:04:56.911Z,24.28
2022-08-08T02:07:41.747Z,24.06
2022-08-08T02:10:44.732Z,24.07
2022-08-08T02:13:53.903Z,24.27
2022-08-08T02:16:35.744Z,23.93
2022-08-08T02:19:41.854Z,23.90
2022-08-08T02:22:32.377Z,24.01
2022-08-08T02:25:20.963Z,23.77
2022-08-08T02:28:04.042Z,23.49
2022-08-08T02:30:50.047Z,23.70
2022-08-08T02:34:00.522Z,23.77
2022-08-08T02:36:58.995Z,23.78
2022-08-08T02:39:42.043Z,23.85
2022-08-08T02:44:34.756Z,23.38
2022-08-08T02:45:58.807Z,23.45
2022-08-08T02:49:01.104Z,23.52
2022-08-08T02:52:11.398Z,23.67
2022-08-08T02:55:21.451Z,23.21
2022-08-08T02:58:08.525Z,23.34
2022-08-08T03:01:08.643Z,23.41
2022-08-08T03:05:01.008Z,23.55
2022-08-08T03:06:36.335Z,23.70
2022-08-08T03:09:22.745Z,23.50
2022-08-08T03:12:36.583Z,23.64
2022-08-08T03:15:58.111Z,23.77
2022-08-08T03:18:52.171Z,23.57
2022-08-08T03:21:40.806Z,23.28
2022-08-08T03:24:08.571Z,23.59
2022-08-08T03:26:42.764Z,23.74
2022-08-08T03:29:17.102Z,23.76
2022-08-08T03:32:08.590Z,23.99
2022-08-08T03:34:40.076Z,23.83
2022-08-08T03:37:59.019Z,23.74
2022-08-08T03:40:04.541Z,23.46
2022-08-08T03:42:32.767Z,23.42
2022-08-08T03:45:02.164Z,23.66
2022-08-08T03:48:02.722Z,23.70
2022-08-08T03:50:32.040Z,23.80
2022-08-08T03:53:13.465Z,23.85
2022-08-08T03:55:56.660Z,23.61
2022-08-08T03:58:35.761Z,23.48
2022-08-08T04:01:24.503Z,23.67
2022-08-08T04:03:58.675Z,23.65
2022-08-08T04:06:29.559Z,23.73
2022-08-08T04:09:10.832Z,23.87
2022-08-08T04:11:58.061Z,23.86
2022-08-08T04:14:35.373Z,23.77
2022-08-08T04:17:04.922Z,23.65
2022-08-08T04:19:43.545Z,23.71
2022-08-08T04:22:11.098Z,23.67
2022-08-08T04:24:41.440Z,23.49
2022-08-08T04:27:19.440Z,23.68
2022-08-08T04:30:00.982Z,23.67
2022-08-08T04:32:47.805Z,23.99
2022-08-08T04:35:15.946Z,23.56
2022-08-08T04:37:43.657Z,23.94
2022-08-08T04:40:13.219Z,23.84
2022-08-08T04:42:46.629Z,24.12
2022-08-08T04:45:26.377Z,24.21
2022-08-08T04:47:57.172Z,24.30
2022-08-08T04:50:29.151Z,24.19
2022-08-08T04:53:13.693Z,24.30
2022-08-08T04:55:56.069Z,24.35
2022-08-08T04:58:25.340Z,24.37
2022-08-08T05:00:53.777Z,24.43
2022-08-08T05:04:11.047Z,24.48
2022-08-08T05:06:12.982Z,24.36
2022-08-08T05:08:51.904Z,24.33
2022-08-08T05:11:23.761Z,24.13
2022-08-08T05:13:58.008Z,24.29
2022-08-08T05:16:51.430Z,24.28
2022-08-08T05:20:10.851Z,24.62
2022-08-08T05:22:07.633Z,24.58
2022-08-08T05:24:37.353Z,25.02
2022-08-08T05:27:05.937Z,24.66
2022-08-08T05:29:35.544Z,24.47
2022-08-08T05:32:07.640Z,24.54
2022-08-08T05:34:41.365Z,24.21
2022-08-08T05:37:17.013Z,24.57
2022-08-08T05:39:52.817Z,24.30
2022-08-08T05:42:30.931Z,24.55
2022-08-08T05:45:25.713Z,24.62
2022-08-08T05:48:00.597Z,24.82
2022-08-08T05:50:36.803Z,25.14
2022-08-08T05:53:23.122Z,24.86
2022-08-08T05:56:10.475Z,24.92
2022-08-08T05:58:56.829Z,24.74
2022-08-08T06:01:50.615Z,25.04
2022-08-08T06:04:23.496Z,24.96
2022-08-08T06:07:00.554Z,25.32
2022-08-08T06:10:00.618Z,25.32
2022-08-08T06:12:29.654Z,25.03
2022-08-08T06:15:06.461Z,25.20
2022-08-08T06:17:51.333Z,25.43
2022-08-08T06:20:27.350Z,25.32
2022-08-08T06:22:56.358Z,25.27
2022-08-08T06:25:33.260Z,25.39
2022-08-08T06:28:18.886Z,25.06
2022-08-08T06:30:48.472Z,25.11
2022-08-08T06:33:37.319Z,25.31
2022-08-08T06:36:10.117Z,25.47
2022-08-08T06:38:41.072Z,25.22
2022-08-08T06:41:13.391Z,25.27
2022-08-08T06:43:47.683Z,25.33
2022-08-08T06:46:26.211Z,25.54
2022-08-08T06:48:58.603Z,25.65
2022-08-08T06:51:46.660Z,25.62
2022-08-08T06:54:15.706Z,25.46
2022-08-08T06:56:51.216Z,25.32
2022-08-08T06:59:19.583Z,25.37
2022-08-08T07:02:26.963Z,25.27
2022-08-08T07:05:00.846Z,25.59
2022-08-08T07:07:37.003Z,25.76
2022-08-08T07:10:08.740Z,25.64
2022-08-08T07:12:43.318Z,25.82
2022-08-08T07:15:32.261Z,25.71
2022-08-08T07:18:36.999Z,25.81
2022-08-08T07:21:04.785Z,26.14
2022-08-08T07:24:01.426Z,26.03
2022-08-08T07:26:35.229Z,26.13
2022-08-08T07:29:07.990Z,26.20
2022-08-08T07:31:40.695Z,26.17
2022-08-08T07:34:10.477Z,26.34
2022-08-08T07:36:50.241Z,26.41
2022-08-08T07:39:29.428Z,26.44
2022-08-08T07:42:04.384Z,26.54
2022-08-08T07:44:40.382Z,26.62
2022-08-08T07:47:10.049Z,26.63
2022-08-08T07:49:40.081Z,26.76
2022-08-08T07:52:13.093Z,26.82
2022-08-08T07:55:09.347Z,26.91
2022-08-08T07:58:15.474Z,27.01
2022-08-08T08:00:59.992Z,26.85
2022-08-08T08:03:43.473Z,26.92
2022-08-08T08:06:14.206Z,26.95
2022-08-08T08:08:50.198Z,27.19
2022-08-08T08:11:23.291Z,27.15
2022-08-08T08:14:08.256Z,27.22
2022-08-08T08:16:41.142Z,27.55
2022-08-08T08:19:12.839Z,27.42
2022-08-08T08:21:57.261Z,27.22
2022-08-08T08:24:32.397Z,27.06
2022-08-08T08:27:03.614Z,27.58
2022-08-08T08:29:32.502Z,27.60
2022-08-08T08:32:03.236Z,27.71
2022-08-08T08:34:34.040Z,27.89
2022-08-08T08:37:07.639Z,27.72
2022-08-08T08:39:39.106Z,27.85
2022-08-08T08:42:35.117Z,27.95
2022-08-08T08:45:21.239Z,27.99
2022-08-08T08:47:54.298Z,28.33
2022-08-08T08:50:33.976Z,28.20
2022-08-08T08:53:28.016Z,28.29
2022-08-08T08:56:01.286Z,28.34
2022-08-08T08:58:37.986Z,28.25
2022-08-08T09:01:10.212Z,28.56
2022-08-08T09:03:47.834Z,28.58
2022-08-08T09:06:33.457Z,28.38
2022-08-08T09:09:07.175Z,28.29
2022-08-08T09:11:47.823Z,28.33
2022-08-08T09:14:26.104Z,28.29
2022-08-08T09:16:55.444Z,28.19
2022-08-08T09:22:02.791Z,28.33
2022-08-08T09:22:11.491Z,28.25
2022-08-08T09:24:40.151Z,28.20
2022-08-08T09:27:20.451Z,28.26
2022-08-08T09:30:09.825Z,28.07
2022-08-08T09:33:11.884Z,28.16
2022-08-08T09:35:37.386Z,28.19
2022-08-08T09:38:09.403Z,28.01
2022-08-08T09:40:53.925Z,28.16
2022-08-08T09:44:04.732Z,28.18
2022-08-08T09:46:25.400Z,28.10
2022-08-08T09:49:18.054Z,28.13
2022-08-08T09:52:07.467Z,27.98
2022-08-08T09:54:44.713Z,27.85
2022-08-08T09:57:19.016Z,27.83
2022-08-08T10:00:14.719Z,28.04
2022-08-08T10:02:42.009Z,28.20
2022-08-08T10:05:25.420Z,28.14
2022-08-08T10:07:59.852Z,28.18
2022-08-08T10:10:36.805Z,28.15
2022-08-08T10:13:30.029Z,28.41
2022-08-08T10:16:05.210Z,28.42
2022-08-08T10:18:35.060Z,28.28
2022-08-08T10:21:23.215Z,28.10
2022-08-08T10:23:57.907Z,28.18
2022-08-08T10:26:57.115Z,28.24
2022-08-08T10:30:00.366Z,28.30
2022-08-08T10:32:37.321Z,28.10
2022-08-08T10:35:20.545Z,28.27
2022-08-08T10:38:05.819Z,28.14
2022-08-08T10:40:38.050Z,28.23
2022-08-08T10:43:07.152Z,28.22
2022-08-08T10:45:55.745Z,28.01
2022-08-08T10:48:38.719Z,28.22
2022-08-08T10:51:26.590Z,28.28
2022-08-08T10:54:01.832Z,28.10
2022-08-08T10:56:34.510Z,27.69
2022-08-08T10:59:14.161Z,27.33
2022-08-08T11:01:46.740Z,27.22
2022-08-08T11:04:38.472Z,27.48
2022-08-08T11:07:07.297Z,27.95
2022-08-08T11:09:35.427Z,27.16
2022-08-08T11:12:12.598Z,27.16
2022-08-08T11:14:52.643Z,27.33
2022-08-08T11:17:57.815Z,27.18
2022-08-08T11:20:13.397Z,26.91
2022-08-08T11:22:41.494Z,26.96
2022-08-08T11:25:14.168Z,26.84
2022-08-08T11:27:44.516Z,26.63
2022-08-08T11:30:19.884Z,26.85
2022-08-08T11:32:48.671Z,26.80
2022-08-08T11:35:27.460Z,27.16
2022-08-08T11:38:43.485Z,27.49
2022-08-08T11:40:54.444Z,27.13
2022-08-08T11:43:25.991Z,27.55
2022-08-08T11:46:13.831Z,27.17
2022-08-08T11:48:47.159Z,26.89
2022-08-08T11:51:38.151Z,27.18
2022-08-08T11:54:26.875Z,26.60
2022-08-08T11:56:56.525Z,26.51
2022-08-08T11:59:58.401Z,26.68
2022-08-08T12:02:40.032Z,26.35
2022-08-08T12:05:12.252Z,26.64
2022-08-08T12:07:54.336Z,26.47
2022-08-08T12:10:27.526Z,26.10
2022-08-08T12:13:09.505Z,26.72
2022-08-08T12:15:46.803Z,26.53
2022-08-08T12:18:21.434Z,26.47
2022-08-08T12:20:55.021Z,26.44
2022-08-08T12:23:44.060Z,26.50
2022-08-08T12:26:28.164Z,26.32
2022-08-08T12:29:21.252Z,25.83
2022-08-08T12:32:17.009Z,26.18
2022-08-08T12:35:01.280Z,26.35
2022-08-08T12:37:43.329Z,26.33
2022-08-08T12:40:22.666Z,26.40
2022-08-08T12:42:52.959Z,26.07
2022-08-08T12:45:57.789Z,25.64
2022-08-08T12:48:37.444Z,25.82
2022-08-08T12:51:07.881Z,25.96
2022-08-08T12:53:58.626Z,25.83
2022-08-08T12:56:53.107Z,26.08
2022-08-08T12:59:27.344Z,26.00
2022-08-08T13:02:28.131Z,26.02
2022-08-08T13:04:58.181Z,26.07
2022-08-08T13:08:04.126Z,25.75
2022-08-08T13:10:32.831Z,25.89
2022-08-08T13:13:06.183Z,25.96
2022-08-08T13:15:36.320Z,26.11
2022-08-08T13:18:10.808Z,26.31
2022-08-08T13:20:45.782Z,26.24
2022-08-08T13:23:36.625Z,26.16
2022-08-08T13:26:13.297Z,26.44
2022-08-08T13:28:45.844Z,26.56
2022-08-08T13:31:17.197Z,26.28
2022-08-08T13:33:47.257Z,26.83
2022-08-08T13:36:26.290Z,26.21
2022-08-08T13:38:54.793Z,26.39
2022-08-08T13:41:39.366Z,26.31
2022-08-08T13:44:11.194Z,26.85
2022-08-08T13:46:39.876Z,26.91
2022-08-08T13:50:39.201Z,26.75
2022-08-08T13:52:06.869Z,27.15
2022-08-08T13:54:44.245Z,27.28
2022-08-08T13:57:17.135Z,27.22
2022-08-08T13:59:48.101Z,27.52
2022-08-08T14:02:31.109Z,27.13
2022-08-08T14:05:22.038Z,26.81
2022-08-08T14:07:53.010Z,27.09
2022-08-08T14:10:33.302Z,27.27
2022-08-08T14:13:09.875Z,27.42
2022-08-08T14:15:50.331Z,27.53
2022-08-08T14:18:36.531Z,27.51
2022-08-08T14:21:15.315Z,27.13
2022-08-08T14:24:07.820Z,26.91
2022-08-08T14:26:42.354Z,26.81
2022-08-08T14:29:30.636Z,27.06
2022-08-08T14:32:10.002Z,26.51
2022-08-08T14:34:42.865Z,26.73
2022-08-08T14:37:12.831Z,26.52
2022-08-08T14:39:48.584Z,26.62
2022-08-08T14:42:26.939Z,26.26
2022-08-08T14:44:56.711Z,26.40
2022-08-08T14:47:25.383Z,26.62
2022-08-08T14:50:21.381Z,26.30
2022-08-08T14:53:05.024Z,26.37
2022-08-08T14:55:41.498Z,26.11
2022-08-08T14:58:12.092Z,26.03
2022-08-08T15:00:45.123Z,26.16
2022-08-08T15:03:16.266Z,25.85
2022-08-08T15:05:54.775Z,26.02
2022-08-08T15:08:34.987Z,25.96
2022-08-08T15:11:07.455Z,26.01
2022-08-08T15:14:00.381Z,25.73
2022-08-08T15:16:28.281Z,25.94
2022-08-08T15:18:56.040Z,26.29
2022-08-08T15:21:27.508Z,26.07
2022-08-08T15:23:58.415Z,26.24
2022-08-08T15:26:28.840Z,26.13
2022-08-08T15:28:57.231Z,26.19
2022-08-08T15:31:55.711Z,26.25
2022-08-08T15:34:29.809Z,26.26
2022-08-08T15:37:03.254Z,26.10
2022-08-08T15:39:37.491Z,26.39
2022-08-08T15:42:10.315Z,26.37
2022-08-08T15:44:38.642Z,26.23
2022-08-08T15:47:16.191Z,26.01
2022-08-08T15:49:48.644Z,26.33
2022-08-08T15:52:17.789Z,26.15
2022-08-08T15:54:47.781Z,25.88
2022-08-08T15:57:19.167Z,25.69
2022-08-08T16:00:06.745Z,25.98
2022-08-08T16:02:43.993Z,25.75
2022-08-08T16:05:14.360Z,25.54
2022-08-08T16:07:52.926Z,25.15
2022-08-08T16:13:05.368Z,25.25
2022-08-08T16:13:30.069Z,25.58
2022-08-08T16:16:09.624Z,25.72
2022-08-08T16:18:44.633Z,25.47
2022-08-08T16:21:31.454Z,25.40
2022-08-08T16:24:04.573Z,25.38
2022-08-08T16:26:35.885Z,25.05
2022-08-08T16:29:08.947Z,25.44
2022-08-08T16:31:40.843Z,25.55
2022-08-08T16:34:09.925Z,25.16
2022-08-08T16:36:38.988Z,24.93
2022-08-08T16:39:09.858Z,25.17
2022-08-08T16:42:01.117Z,24.84
2022-08-08T16:44:33.887Z,25.17
2022-08-08T16:47:31.601Z,24.71
2022-08-08T16:50:14.770Z,24.43
2022-08-08T16:55:04.701Z,24.65
2022-08-08T16:55:55.693Z,24.83
2022-08-08T16:58:25.597Z,24.91
2022-08-08T17:00:55.095Z,24.95
2022-08-08T17:03:25.416Z,25.09
2022-08-08T17:06:39.779Z,24.63
2022-08-08T17:08:58.228Z,24.47
2022-08-08T17:11:28.474Z,24.53
2022-08-08T17:14:18.647Z,24.51
2022-08-08T17:16:57.866Z,24.33
2022-08-08T17:19:30.377Z,24.06
2022-08-08T17:22:06.161Z,23.83
2022-08-08T17:24:35.005Z,24.23
2022-08-08T17:27:04.596Z,23.78
2022-08-08T17:29:36.334Z,24.17
2022-08-08T17:32:11.004Z,24.09
2022-08-08T17:35:44.434Z,24.03
2022-08-08T17:37:27.550Z,24.25
2022-08-08T17:40:11.015Z,24.28
2022-08-08T17:42:41.616Z,24.36
2022-08-08T17:45:22.878Z,23.80
2022-08-08T17:47:53.914Z,23.52
2022-08-08T17:50:23.668Z,23.67
2022-08-08T17:52:57.551Z,23.65
2022-08-08T17:56:03.460Z,23.71
2022-08-08T17:58:13.345Z,24.15
2022-08-08T18:00:41.675Z,23.94
2022-08-08T18:03:13.928Z,23.40
2022-08-08T18:05:48.610Z,23.51
2022-08-08T18:08:36.974Z,22.98
2022-08-08T18:11:11.673Z,22.83
2022-08-08T18:13:43.345Z,22.70
2022-08-08T18:16:11.408Z,22.49
2022-08-08T18:18:45.381Z,22.52
2022-08-08T18:21:34.524Z,22.34
2022-08-08T18:24:17.624Z,22.61
2022-08-08T18:26:55.058Z,22.20
2022-08-08T18:29:27.396Z,22.15
2022-08-08T18:32:09.896Z,22.75
2022-08-08T18:34:42.579Z,22.66
2022-08-08T18:37:17.666Z,22.47
2022-08-08T18:39:58.449Z,22.47
2022-08-08T18:42:26.143Z,22.81
2022-08-08T18:44:57.456Z,22.33
2022-08-08T18:47:26.598Z,22.32
2022-08-08T18:49:58.873Z,22.58
2022-08-08T18:52:36.765Z,22.44
2022-08-08T18:55:09.764Z,22.56
2022-08-08T18:57:44.860Z,22.52
2022-08-08T19:00:22.146Z,22.21
2022-08-08T19:02:56.511Z,22.39
2022-08-08T19:05:32.390Z,21.95
2022-08-08T19:08:25.570Z,21.82
2022-08-08T19:10:59.023Z,22.11
2022-08-08T19:13:53.172Z,22.24
2022-08-08T19:16:19.415Z,22.44
2022-08-08T19:19:00.386Z,22.60
2022-08-08T19:21:32.872Z,22.31
2022-08-08T19:24:05.854Z,22.58
2022-08-08T19:26:37.527Z,22.03
2022-08-08T19:29:06.474Z,21.86
2022-08-08T19:31:35.391Z,21.88
2022-08-08T19:34:36.339Z,21.93
2022-08-08T19:36:58.539Z,21.59
2022-08-08T19:39:35.083Z,21.32
2022-08-08T19:42:07.141Z,21.15
2022-08-08T19:44:46.443Z,21.05
2022-08-08T19:47:23.436Z,21.14
2022-08-08T19:49:59.898Z,21.20
2022-08-08T19:52:36.864Z,21.49
2022-08-08T19:55:12.287Z,21.66
2022-08-08T19:57:42.533Z,21.87
2022-08-08T20:00:30.658Z,22.11
2022-08-08T20:03:00.759Z,21.65
2022-08-08T20:06:13.472Z,22.09
2022-08-08T20:08:37.434Z,21.96
2022-08-08T20:11:04.051Z,22.12
2022-08-08T20:14:33.055Z,21.97
2022-08-08T20:16:19.684Z,22.25
2022-08-08T20:18:52.915Z,21.91
2022-08-08T20:21:25.726Z,22.02
2022-08-08T20:23:58.261Z,21.77
2022-08-08T20:26:29.790Z,21.52
2022-08-08T20:28:58.226Z,21.73
2022-08-08T20:31:28.244Z,21.81
2022-08-08T20:34:30.008Z,21.88
2022-08-08T20:37:03.383Z,22.02
2022-08-08T20:39:39.349Z,21.54
2022-08-08T20:42:23.703Z,21.93
2022-08-08T20:44:57.872Z,21.96
2022-08-08T20:47:26.185Z,22.10
2022-08-08T20:49:57.576Z,22.06
2022-08-08T20:52:27.707Z,22.46
2022-08-08T20:54:56.516Z,22.07
2022-08-08T20:57:26.976Z,22.19
2022-08-08T20:59:56.571Z,21.39
2022-08-08T21:02:25.764Z,21.88
2022-08-08T21:05:00.923Z,21.64
2022-08-08T21:08:07.857Z,21.96
2022-08-08T21:10:20.867Z,22.12
2022-08-08T21:12:53.024Z,21.79
2022-08-08T21:16:06.290Z,22.11
2022-08-08T21:18:11.692Z,22.02
2022-08-08T21:20:41.908Z,22.22
2022-08-08T21:23:13.327Z,22.10
2022-08-08T21:25:48.922Z,21.82
2022-08-08T21:28:33.625Z,21.76
2022-08-08T21:31:21.971Z,22.03
2022-08-08T21:33:54.715Z,22.23
2022-08-08T21:36:28.492Z,22.48
2022-08-08T21:38:57.838Z,22.57
2022-08-08T21:41:38.730Z,22.77
2022-08-08T21:44:13.744Z,22.79
2022-08-08T21:48:06.099Z,22.71
2022-08-08T21:49:30.768Z,22.57
2022-08-08T21:54:18.583Z,22.30
2022-08-08T21:55:01.697Z,22.47
2022-08-08T21:57:42.465Z,22.43
2022-08-08T22:00:14.213Z,22.19
2022-08-08T22:02:44.349Z,22.35
2022-08-08T22:05:14.738Z,22.64
2022-08-08T22:07:47.507Z,22.51
2022-08-08T22:10:31.977Z,22.30
2022-08-08T22:13:16.908Z,22.29
2022-08-08T22:15:59.565Z,22.48
2022-08-08T22:18:33.123Z,22.44
2022-08-08T22:21:14.069Z,22.45
2022-08-08T22:23:50.462Z,22.11
2022-08-08T22:26:29.989Z,22.29
2022-08-08T22:29:04.626Z,22.13
2022-08-08T22:32:01.526Z,21.96
2022-08-08T22:34:39.325Z,21.54
2022-08-08T22:37:14.939Z,21.61
2022-08-08T22:40:00.126Z,21.69
2022-08-08T22:42:31.868Z,21.68
2022-08-08T22:45:12.333Z,21.97
2022-08-08T22:47:48.859Z,22.17
2022-08-08T22:50:27.505Z,21.80
2022-08-08T22:54:29.171Z,21.27
2022-08-08T22:56:07.105Z,21.21
2022-08-08T22:58:35.273Z,21.04
2022-08-08T23:01:26.604Z,21.58
2022-08-08T23:03:56.755Z,21.68
2022-08-08T23:06:25.268Z,21.83
2022-08-08T23:08:58.589Z,21.99
2022-08-08T23:11:31.252Z,22.06
2022-08-08T23:14:18.024Z,21.61
2022-08-08T23:16:57.922Z,21.18
2022-08-08T23:19:28.027Z,21.74
2022-08-08T23:22:04.450Z,21.90
2022-08-08T23:24:41.421Z,21.41
2022-08-08T23:27:11.335Z,21.88
2022-08-08T23:29:59.078Z,22.07
2022-08-08T23:32:26.803Z,21.94
2022-08-08T23:34:59.224Z,21.83
2022-08-08T23:38:00.859Z,21.48
2022-08-08T23:40:16.257Z,21.46
2022-08-08T23:42:45.210Z,21.29
2022-08-08T23:45:13.823Z,21.50
2022-08-08T23:49:00.795Z,21.68
2022-08-08T23:50:31.428Z,21.75
2022-08-08T23:53:05.120Z,21.76
2022-08-08T23:55:33.660Z,21.49
2022-08-08T23:58:31.879Z,21.53
